sensor_id;sensor_type;location;lat;lon;timestamp;P1;durP1;ratioP1;P2;durP2;ratioP2
80101;SDS011;69407;44.966;19.622;2023-05-07T00:00:36;10.40;;;3.60;;
80101;SDS011;69407;44.966;19.622;2023-05-07T00:03:01;11.82;;;3.70;;
80101;SDS011;69407;44.966;19.622;2023-05-07T00:05:27;6.60;;;3.65;;
80101;SDS011;69407;44.966;19.622;2023-05-07T00:07:53;6.38;;;3.50;;
80101;SDS011;69407;44.966;19.622;2023-05-07T00:10:18;9.75;;;3.58;;
80101;SDS011;69407;44.966;19.622;2023-05-07T00:12:44;7.80;;;3.58;;
80101;SDS011;69407;44.966;19.622;2023-05-07T00:15:10;6.55;;;3.67;;
80101;SDS011;69407;44.966;19.622;2023-05-07T00:17:36;8.18;;;3.30;;
80101;SDS011;69407;44.966;19.622;2023-05-07T00:20:02;7.53;;;3.20;;
80101;SDS011;69407;44.966;19.622;2023-05-07T00:22:29;10.38;;;3.22;;
80101;SDS011;69407;44.966;19.622;2023-05-07T00:24:56;7.35;;;3.17;;
80101;SDS011;69407;44.966;19.622;2023-05-07T00:27:22;6.93;;;3.28;;
80101;SDS011;69407;44.966;19.622;2023-05-07T00:29:47;7.57;;;3.92;;
80101;SDS011;69407;44.966;19.622;2023-05-07T00:32:13;6.70;;;3.88;;
80101;SDS011;69407;44.966;19.622;2023-05-07T00:34:39;6.47;;;3.80;;
80101;SDS011;69407;44.966;19.622;2023-05-07T00:37:05;9.57;;;4.07;;
80101;SDS011;69407;44.966;19.622;2023-05-07T00:39:32;6.13;;;3.65;;
80101;SDS011;69407;44.966;19.622;2023-05-07T00:41:58;6.03;;;3.53;;
80101;SDS011;69407;44.966;19.622;2023-05-07T00:44:25;6.78;;;3.65;;
80101;SDS011;69407;44.966;19.622;2023-05-07T00:46:51;9.60;;;3.97;;
80101;SDS011;69407;44.966;19.622;2023-05-07T00:49:18;8.05;;;3.60;;
80101;SDS011;69407;44.966;19.622;2023-05-07T00:51:45;5.90;;;3.28;;
80101;SDS011;69407;44.966;19.622;2023-05-07T00:54:11;8.07;;;3.72;;
80101;SDS011;69407;44.966;19.622;2023-05-07T00:56:38;9.27;;;4.68;;
80101;SDS011;69407;44.966;19.622;2023-05-07T00:59:05;8.55;;;3.90;;
80101;SDS011;69407;44.966;19.622;2023-05-07T01:01:31;10.65;;;4.32;;
80101;SDS011;69407;44.966;19.622;2023-05-07T01:03:57;8.07;;;4.07;;
80101;SDS011;69407;44.966;19.622;2023-05-07T01:06:23;6.05;;;3.58;;
80101;SDS011;69407;44.966;19.622;2023-05-07T01:11:17;7.30;;;4.05;;
80101;SDS011;69407;44.966;19.622;2023-05-07T01:13:45;6.70;;;4.03;;
80101;SDS011;69407;44.966;19.622;2023-05-07T01:16:11;8.40;;;4.35;;
80101;SDS011;69407;44.966;19.622;2023-05-07T01:18:37;8.02;;;4.63;;
80101;SDS011;69407;44.966;19.622;2023-05-07T01:21:03;8.60;;;4.45;;
80101;SDS011;69407;44.966;19.622;2023-05-07T01:23:30;8.63;;;4.53;;
80101;SDS011;69407;44.966;19.622;2023-05-07T01:25:55;10.63;;;4.25;;
80101;SDS011;69407;44.966;19.622;2023-05-07T01:28:21;6.95;;;3.55;;
80101;SDS011;69407;44.966;19.622;2023-05-07T01:30:49;8.52;;;3.85;;
80101;SDS011;69407;44.966;19.622;2023-05-07T01:33:18;6.70;;;3.67;;
80101;SDS011;69407;44.966;19.622;2023-05-07T01:35:47;6.93;;;4.13;;
80101;SDS011;69407;44.966;19.622;2023-05-07T01:38:15;6.95;;;3.60;;
80101;SDS011;69407;44.966;19.622;2023-05-07T01:40:41;9.80;;;3.67;;
80101;SDS011;69407;44.966;19.622;2023-05-07T01:43:07;7.22;;;3.40;;
80101;SDS011;69407;44.966;19.622;2023-05-07T01:45:34;10.57;;;4.20;;
80101;SDS011;69407;44.966;19.622;2023-05-07T01:48:00;9.43;;;4.78;;
80101;SDS011;69407;44.966;19.622;2023-05-07T01:50:27;12.88;;;4.88;;
80101;SDS011;69407;44.966;19.622;2023-05-07T01:52:53;11.43;;;4.40;;
80101;SDS011;69407;44.966;19.622;2023-05-07T01:55:19;12.55;;;4.82;;
80101;SDS011;69407;44.966;19.622;2023-05-07T01:57:44;11.77;;;4.45;;
80101;SDS011;69407;44.966;19.622;2023-05-07T02:00:10;13.27;;;4.75;;
80101;SDS011;69407;44.966;19.622;2023-05-07T02:02:36;9.88;;;4.57;;
80101;SDS011;69407;44.966;19.622;2023-05-07T02:05:03;9.73;;;4.63;;
80101;SDS011;69407;44.966;19.622;2023-05-07T02:07:29;8.30;;;4.43;;
80101;SDS011;69407;44.966;19.622;2023-05-07T02:09:54;10.02;;;4.85;;
80101;SDS011;69407;44.966;19.622;2023-05-07T02:12:22;9.25;;;4.40;;
80101;SDS011;69407;44.966;19.622;2023-05-07T02:14:49;8.77;;;4.00;;
80101;SDS011;69407;44.966;19.622;2023-05-07T02:17:14;7.85;;;4.07;;
80101;SDS011;69407;44.966;19.622;2023-05-07T02:19:40;7.65;;;3.80;;
80101;SDS011;69407;44.966;19.622;2023-05-07T02:22:06;9.55;;;3.53;;
80101;SDS011;69407;44.966;19.622;2023-05-07T02:24:32;8.02;;;4.15;;
80101;SDS011;69407;44.966;19.622;2023-05-07T02:26:57;7.72;;;3.72;;
80101;SDS011;69407;44.966;19.622;2023-05-07T02:29:23;7.97;;;4.75;;
80101;SDS011;69407;44.966;19.622;2023-05-07T02:31:48;6.65;;;4.05;;
80101;SDS011;69407;44.966;19.622;2023-05-07T02:34:18;9.98;;;4.28;;
80101;SDS011;69407;44.966;19.622;2023-05-07T02:36:44;8.13;;;4.22;;
80101;SDS011;69407;44.966;19.622;2023-05-07T02:39:10;7.03;;;3.90;;
80101;SDS011;69407;44.966;19.622;2023-05-07T02:41:37;8.38;;;4.05;;
80101;SDS011;69407;44.966;19.622;2023-05-07T02:44:02;8.95;;;4.15;;
80101;SDS011;69407;44.966;19.622;2023-05-07T02:46:28;9.80;;;3.97;;
80101;SDS011;69407;44.966;19.622;2023-05-07T02:48:53;8.82;;;4.00;;
80101;SDS011;69407;44.966;19.622;2023-05-07T02:51:20;8.18;;;3.85;;
80101;SDS011;69407;44.966;19.622;2023-05-07T02:53:46;9.63;;;4.70;;
80101;SDS011;69407;44.966;19.622;2023-05-07T02:56:12;9.85;;;3.80;;
80101;SDS011;69407;44.966;19.622;2023-05-07T02:58:37;9.27;;;4.00;;
80101;SDS011;69407;44.966;19.622;2023-05-07T03:01:07;9.73;;;4.30;;
80101;SDS011;69407;44.966;19.622;2023-05-07T03:03:33;10.32;;;3.72;;
80101;SDS011;69407;44.966;19.622;2023-05-07T03:05:59;9.10;;;4.13;;
80101;SDS011;69407;44.966;19.622;2023-05-07T03:08:25;6.50;;;3.78;;
80101;SDS011;69407;44.966;19.622;2023-05-07T03:10:50;9.18;;;4.13;;
80101;SDS011;69407;44.966;19.622;2023-05-07T03:13:16;10.50;;;4.25;;
80101;SDS011;69407;44.966;19.622;2023-05-07T03:15:42;7.30;;;4.22;;
80101;SDS011;69407;44.966;19.622;2023-05-07T03:18:07;8.02;;;4.10;;
80101;SDS011;69407;44.966;19.622;2023-05-07T03:20:33;9.15;;;4.65;;
80101;SDS011;69407;44.966;19.622;2023-05-07T03:22:59;7.32;;;4.22;;
80101;SDS011;69407;44.966;19.622;2023-05-07T03:25:24;6.60;;;3.45;;
80101;SDS011;69407;44.966;19.622;2023-05-07T03:27:50;11.55;;;4.38;;
80101;SDS011;69407;44.966;19.622;2023-05-07T03:30:16;8.32;;;4.15;;
80101;SDS011;69407;44.966;19.622;2023-05-07T03:32:41;6.13;;;3.38;;
80101;SDS011;69407;44.966;19.622;2023-05-07T03:35:07;7.35;;;4.13;;
80101;SDS011;69407;44.966;19.622;2023-05-07T03:37:32;6.60;;;4.10;;
80101;SDS011;69407;44.966;19.622;2023-05-07T03:39:58;6.25;;;3.55;;
80101;SDS011;69407;44.966;19.622;2023-05-07T03:42:23;7.47;;;4.28;;
80101;SDS011;69407;44.966;19.622;2023-05-07T03:44:49;7.95;;;3.70;;
80101;SDS011;69407;44.966;19.622;2023-05-07T03:47:15;7.70;;;3.80;;
80101;SDS011;69407;44.966;19.622;2023-05-07T03:49:40;9.00;;;4.18;;
80101;SDS011;69407;44.966;19.622;2023-05-07T03:52:06;10.15;;;4.20;;
80101;SDS011;69407;44.966;19.622;2023-05-07T03:54:31;7.82;;;3.85;;
80101;SDS011;69407;44.966;19.622;2023-05-07T03:56:57;6.65;;;3.53;;
80101;SDS011;69407;44.966;19.622;2023-05-07T03:59:22;9.27;;;4.15;;
80101;SDS011;69407;44.966;19.622;2023-05-07T04:01:48;7.97;;;3.85;;
80101;SDS011;69407;44.966;19.622;2023-05-07T04:04:14;8.15;;;3.55;;
80101;SDS011;69407;44.966;19.622;2023-05-07T04:06:39;11.57;;;4.57;;
80101;SDS011;69407;44.966;19.622;2023-05-07T04:09:05;9.02;;;3.65;;
80101;SDS011;69407;44.966;19.622;2023-05-07T04:11:31;10.07;;;4.18;;
80101;SDS011;69407;44.966;19.622;2023-05-07T04:13:57;9.57;;;3.90;;
80101;SDS011;69407;44.966;19.622;2023-05-07T04:16:22;7.95;;;3.70;;
80101;SDS011;69407;44.966;19.622;2023-05-07T04:18:48;8.15;;;3.00;;
80101;SDS011;69407;44.966;19.622;2023-05-07T04:21:14;10.00;;;4.28;;
80101;SDS011;69407;44.966;19.622;2023-05-07T04:23:43;8.65;;;3.55;;
80101;SDS011;69407;44.966;19.622;2023-05-07T04:26:08;7.90;;;4.75;;
80101;SDS011;69407;44.966;19.622;2023-05-07T04:28:34;7.47;;;3.80;;
80101;SDS011;69407;44.966;19.622;2023-05-07T04:31:00;8.98;;;4.05;;
80101;SDS011;69407;44.966;19.622;2023-05-07T04:33:25;9.73;;;4.20;;
80101;SDS011;69407;44.966;19.622;2023-05-07T04:35:51;7.00;;;3.47;;
80101;SDS011;69407;44.966;19.622;2023-05-07T04:38:17;9.38;;;3.97;;
80101;SDS011;69407;44.966;19.622;2023-05-07T04:40:43;5.57;;;3.58;;
80101;SDS011;69407;44.966;19.622;2023-05-07T04:43:09;9.18;;;3.28;;
80101;SDS011;69407;44.966;19.622;2023-05-07T04:45:35;10.95;;;3.65;;
80101;SDS011;69407;44.966;19.622;2023-05-07T04:48:01;6.55;;;3.83;;
80101;SDS011;69407;44.966;19.622;2023-05-07T04:50:26;6.43;;;3.53;;
80101;SDS011;69407;44.966;19.622;2023-05-07T04:52:52;7.25;;;3.65;;
80101;SDS011;69407;44.966;19.622;2023-05-07T04:55:17;6.30;;;3.63;;
80101;SDS011;69407;44.966;19.622;2023-05-07T04:57:43;6.55;;;4.03;;
80101;SDS011;69407;44.966;19.622;2023-05-07T05:00:08;8.68;;;3.45;;
80101;SDS011;69407;44.966;19.622;2023-05-07T05:02:34;7.80;;;3.90;;
80101;SDS011;69407;44.966;19.622;2023-05-07T05:05:00;8.15;;;3.63;;
80101;SDS011;69407;44.966;19.622;2023-05-07T05:07:29;7.13;;;3.60;;
80101;SDS011;69407;44.966;19.622;2023-05-07T05:09:55;9.02;;;3.65;;
80101;SDS011;69407;44.966;19.622;2023-05-07T05:12:20;17.60;;;5.03;;
80101;SDS011;69407;44.966;19.622;2023-05-07T05:14:46;7.95;;;3.83;;
80101;SDS011;69407;44.966;19.622;2023-05-07T05:17:12;6.38;;;4.03;;
80101;SDS011;69407;44.966;19.622;2023-05-07T05:19:37;7.75;;;4.13;;
80101;SDS011;69407;44.966;19.622;2023-05-07T05:22:03;7.88;;;3.65;;
80101;SDS011;69407;44.966;19.622;2023-05-07T05:24:29;9.82;;;3.75;;
80101;SDS011;69407;44.966;19.622;2023-05-07T05:26:55;9.07;;;3.85;;
80101;SDS011;69407;44.966;19.622;2023-05-07T05:29:21;7.85;;;4.20;;
80101;SDS011;69407;44.966;19.622;2023-05-07T05:31:46;7.43;;;4.40;;
80101;SDS011;69407;44.966;19.622;2023-05-07T05:34:12;7.88;;;3.85;;
80101;SDS011;69407;44.966;19.622;2023-05-07T05:36:38;8.65;;;3.85;;
80101;SDS011;69407;44.966;19.622;2023-05-07T05:39:03;8.00;;;4.75;;
80101;SDS011;69407;44.966;19.622;2023-05-07T05:41:29;6.35;;;4.22;;
80101;SDS011;69407;44.966;19.622;2023-05-07T05:43:55;7.00;;;3.90;;
80101;SDS011;69407;44.966;19.622;2023-05-07T05:46:21;10.80;;;3.58;;
80101;SDS011;69407;44.966;19.622;2023-05-07T05:48:46;7.10;;;3.50;;
80101;SDS011;69407;44.966;19.622;2023-05-07T05:51:11;8.65;;;3.33;;
80101;SDS011;69407;44.966;19.622;2023-05-07T05:53:37;8.27;;;3.83;;
80101;SDS011;69407;44.966;19.622;2023-05-07T05:56:02;5.57;;;3.53;;
80101;SDS011;69407;44.966;19.622;2023-05-07T05:58:28;7.20;;;3.70;;
80101;SDS011;69407;44.966;19.622;2023-05-07T06:00:54;5.68;;;3.05;;
80101;SDS011;69407;44.966;19.622;2023-05-07T06:03:20;5.97;;;3.00;;
80101;SDS011;69407;44.966;19.622;2023-05-07T06:05:45;6.93;;;3.30;;
80101;SDS011;69407;44.966;19.622;2023-05-07T06:08:11;10.23;;;3.10;;
80101;SDS011;69407;44.966;19.622;2023-05-07T06:10:37;6.45;;;2.97;;
80101;SDS011;69407;44.966;19.622;2023-05-07T06:13:02;3.72;;;2.45;;
80101;SDS011;69407;44.966;19.622;2023-05-07T06:15:28;7.72;;;2.75;;
80101;SDS011;69407;44.966;19.622;2023-05-07T06:17:53;3.97;;;2.40;;
80101;SDS011;69407;44.966;19.622;2023-05-07T06:20:20;10.57;;;2.70;;
80101;SDS011;69407;44.966;19.622;2023-05-07T06:22:46;6.18;;;2.33;;
80101;SDS011;69407;44.966;19.622;2023-05-07T06:25:11;4.75;;;2.47;;
80101;SDS011;69407;44.966;19.622;2023-05-07T06:27:37;6.90;;;2.83;;
80101;SDS011;69407;44.966;19.622;2023-05-07T06:30:04;7.47;;;3.33;;
80101;SDS011;69407;44.966;19.622;2023-05-07T06:32:30;5.70;;;2.58;;
80101;SDS011;69407;44.966;19.622;2023-05-07T06:34:56;5.30;;;2.38;;
80101;SDS011;69407;44.966;19.622;2023-05-07T06:37:21;5.18;;;2.75;;
80101;SDS011;69407;44.966;19.622;2023-05-07T06:39:47;5.95;;;2.33;;
80101;SDS011;69407;44.966;19.622;2023-05-07T06:42:12;5.45;;;3.20;;
80101;SDS011;69407;44.966;19.622;2023-05-07T06:44:38;5.07;;;2.10;;
80101;SDS011;69407;44.966;19.622;2023-05-07T06:47:03;6.15;;;2.63;;
80101;SDS011;69407;44.966;19.622;2023-05-07T06:49:30;3.97;;;2.22;;
80101;SDS011;69407;44.966;19.622;2023-05-07T06:51:56;4.60;;;2.65;;
80101;SDS011;69407;44.966;19.622;2023-05-07T06:54:22;4.07;;;2.50;;
80101;SDS011;69407;44.966;19.622;2023-05-07T06:56:48;5.00;;;2.50;;
80101;SDS011;69407;44.966;19.622;2023-05-07T06:59:13;3.70;;;2.30;;
80101;SDS011;69407;44.966;19.622;2023-05-07T07:01:39;5.38;;;2.13;;
80101;SDS011;69407;44.966;19.622;2023-05-07T07:04:04;5.63;;;2.15;;
80101;SDS011;69407;44.966;19.622;2023-05-07T07:06:30;6.10;;;2.22;;
80101;SDS011;69407;44.966;19.622;2023-05-07T07:08:57;3.80;;;2.08;;
80101;SDS011;69407;44.966;19.622;2023-05-07T07:11:22;3.90;;;2.13;;
80101;SDS011;69407;44.966;19.622;2023-05-07T07:13:48;5.03;;;2.50;;
80101;SDS011;69407;44.966;19.622;2023-05-07T07:16:13;3.35;;;2.00;;
80101;SDS011;69407;44.966;19.622;2023-05-07T07:18:39;3.45;;;1.98;;
80101;SDS011;69407;44.966;19.622;2023-05-07T07:21:05;6.13;;;2.40;;
80101;SDS011;69407;44.966;19.622;2023-05-07T07:23:30;6.80;;;2.47;;
80101;SDS011;69407;44.966;19.622;2023-05-07T07:25:56;5.57;;;2.63;;
80101;SDS011;69407;44.966;19.622;2023-05-07T07:28:21;6.07;;;2.70;;
80101;SDS011;69407;44.966;19.622;2023-05-07T07:30:47;4.97;;;2.67;;
80101;SDS011;69407;44.966;19.622;2023-05-07T07:33:12;5.68;;;2.70;;
80101;SDS011;69407;44.966;19.622;2023-05-07T07:35:38;3.97;;;2.17;;
80101;SDS011;69407;44.966;19.622;2023-05-07T07:38:03;6.05;;;3.00;;
80101;SDS011;69407;44.966;19.622;2023-05-07T07:40:29;3.22;;;2.10;;
80101;SDS011;69407;44.966;19.622;2023-05-07T07:42:56;5.15;;;2.28;;
80101;SDS011;69407;44.966;19.622;2023-05-07T07:45:22;6.65;;;2.70;;
80101;SDS011;69407;44.966;19.622;2023-05-07T07:47:47;4.45;;;2.28;;
80101;SDS011;69407;44.966;19.622;2023-05-07T07:50:13;5.28;;;3.33;;
80101;SDS011;69407;44.966;19.622;2023-05-07T07:52:38;5.72;;;3.25;;
80101;SDS011;69407;44.966;19.622;2023-05-07T07:55:04;3.17;;;2.70;;
80101;SDS011;69407;44.966;19.622;2023-05-07T07:57:30;5.88;;;4.22;;
80101;SDS011;69407;44.966;19.622;2023-05-07T07:59:55;6.88;;;3.88;;
80101;SDS011;69407;44.966;19.622;2023-05-07T08:02:21;5.07;;;3.30;;
80101;SDS011;69407;44.966;19.622;2023-05-07T08:04:46;5.10;;;4.47;;
80101;SDS011;69407;44.966;19.622;2023-05-07T08:07:15;4.40;;;4.00;;
80101;SDS011;69407;44.966;19.622;2023-05-07T08:09:43;7.28;;;3.72;;
80101;SDS011;69407;44.966;19.622;2023-05-07T08:12:08;6.60;;;4.30;;
80101;SDS011;69407;44.966;19.622;2023-05-07T08:14:34;5.93;;;3.97;;
80101;SDS011;69407;44.966;19.622;2023-05-07T08:17:01;4.90;;;4.43;;
80101;SDS011;69407;44.966;19.622;2023-05-07T08:19:26;5.45;;;3.83;;
80101;SDS011;69407;44.966;19.622;2023-05-07T08:21:52;7.05;;;5.10;;
80101;SDS011;69407;44.966;19.622;2023-05-07T08:24:17;5.45;;;3.88;;
80101;SDS011;69407;44.966;19.622;2023-05-07T08:26:43;6.03;;;5.28;;
80101;SDS011;69407;44.966;19.622;2023-05-07T08:29:10;10.25;;;5.40;;
80101;SDS011;69407;44.966;19.622;2023-05-07T08:31:35;10.35;;;4.30;;
80101;SDS011;69407;44.966;19.622;2023-05-07T08:34:01;7.47;;;4.78;;
80101;SDS011;69407;44.966;19.622;2023-05-07T08:36:26;6.57;;;3.80;;
80101;SDS011;69407;44.966;19.622;2023-05-07T08:38:53;9.40;;;4.65;;
80101;SDS011;69407;44.966;19.622;2023-05-07T08:41:19;7.35;;;3.67;;
80101;SDS011;69407;44.966;19.622;2023-05-07T08:43:49;3.83;;;2.60;;
80101;SDS011;69407;44.966;19.622;2023-05-07T08:46:19;6.45;;;2.72;;
80101;SDS011;69407;44.966;19.622;2023-05-07T08:48:48;6.07;;;3.47;;
80101;SDS011;69407;44.966;19.622;2023-05-07T08:51:19;6.13;;;3.72;;
80101;SDS011;69407;44.966;19.622;2023-05-07T08:53:46;4.22;;;2.10;;
80101;SDS011;69407;44.966;19.622;2023-05-07T08:56:13;6.00;;;2.40;;
80101;SDS011;69407;44.966;19.622;2023-05-07T08:58:43;3.97;;;2.40;;
80101;SDS011;69407;44.966;19.622;2023-05-07T09:01:09;7.00;;;2.85;;
80101;SDS011;69407;44.966;19.622;2023-05-07T09:03:38;5.00;;;3.15;;
80101;SDS011;69407;44.966;19.622;2023-05-07T09:06:04;8.57;;;3.65;;
80101;SDS011;69407;44.966;19.622;2023-05-07T09:08:30;9.27;;;3.73;;
80101;SDS011;69407;44.966;19.622;2023-05-07T09:10:58;9.38;;;3.75;;
80101;SDS011;69407;44.966;19.622;2023-05-07T09:13:23;7.72;;;4.18;;
80101;SDS011;69407;44.966;19.622;2023-05-07T09:15:49;7.32;;;2.85;;
80101;SDS011;69407;44.966;19.622;2023-05-07T09:18:14;12.57;;;3.80;;
80101;SDS011;69407;44.966;19.622;2023-05-07T09:20:40;7.88;;;4.05;;
80101;SDS011;69407;44.966;19.622;2023-05-07T09:23:07;10.15;;;4.07;;
80101;SDS011;69407;44.966;19.622;2023-05-07T09:25:34;9.30;;;4.15;;
80101;SDS011;69407;44.966;19.622;2023-05-07T09:28:01;9.40;;;3.65;;
80101;SDS011;69407;44.966;19.622;2023-05-07T09:30:28;7.65;;;3.30;;
80101;SDS011;69407;44.966;19.622;2023-05-07T09:32:55;7.97;;;3.67;;
80101;SDS011;69407;44.966;19.622;2023-05-07T09:35:21;5.15;;;2.60;;
80101;SDS011;69407;44.966;19.622;2023-05-07T09:37:49;6.97;;;2.63;;
80101;SDS011;69407;44.966;19.622;2023-05-07T09:40:27;9.23;;;3.72;;
80101;SDS011;69407;44.966;19.622;2023-05-07T09:42:54;7.50;;;3.33;;
80101;SDS011;69407;44.966;19.622;2023-05-07T09:47:55;6.68;;;2.97;;
80101;SDS011;69407;44.966;19.622;2023-05-07T09:51:09;7.22;;;2.75;;
80101;SDS011;69407;44.966;19.622;2023-05-07T09:53:13;8.50;;;3.30;;
80101;SDS011;69407;44.966;19.622;2023-05-07T09:55:39;6.70;;;2.35;;
80101;SDS011;69407;44.966;19.622;2023-05-07T09:58:05;4.47;;;2.30;;
80101;SDS011;69407;44.966;19.622;2023-05-07T10:00:31;5.47;;;2.50;;
80101;SDS011;69407;44.966;19.622;2023-05-07T10:02:58;11.25;;;2.88;;
80101;SDS011;69407;44.966;19.622;2023-05-07T10:05:25;4.70;;;2.80;;
80101;SDS011;69407;44.966;19.622;2023-05-07T10:07:52;7.07;;;3.10;;
80101;SDS011;69407;44.966;19.622;2023-05-07T10:10:18;5.93;;;2.88;;
80101;SDS011;69407;44.966;19.622;2023-05-07T10:12:44;7.50;;;3.20;;
80101;SDS011;69407;44.966;19.622;2023-05-07T10:15:10;4.00;;;2.45;;
80101;SDS011;69407;44.966;19.622;2023-05-07T10:17:37;5.72;;;2.40;;
80101;SDS011;69407;44.966;19.622;2023-05-07T10:20:04;5.13;;;2.80;;
80101;SDS011;69407;44.966;19.622;2023-05-07T10:22:37;6.30;;;2.75;;
80101;SDS011;69407;44.966;19.622;2023-05-07T10:25:13;6.57;;;2.53;;
80101;SDS011;69407;44.966;19.622;2023-05-07T10:27:51;3.60;;;2.15;;
80101;SDS011;69407;44.966;19.622;2023-05-07T10:32:51;4.47;;;2.35;;
80101;SDS011;69407;44.966;19.622;2023-05-07T10:35:21;4.47;;;2.20;;
80101;SDS011;69407;44.966;19.622;2023-05-07T10:37:49;5.13;;;2.65;;
80101;SDS011;69407;44.966;19.622;2023-05-07T10:40:16;4.22;;;2.45;;
80101;SDS011;69407;44.966;19.622;2023-05-07T10:42:58;4.18;;;2.20;;
80101;SDS011;69407;44.966;19.622;2023-05-07T10:45:25;3.33;;;2.05;;
80101;SDS011;69407;44.966;19.622;2023-05-07T10:50:36;4.20;;;2.08;;
80101;SDS011;69407;44.966;19.622;2023-05-07T10:55:44;4.30;;;2.38;;
80101;SDS011;69407;44.966;19.622;2023-05-07T10:58:28;3.72;;;2.45;;
80101;SDS011;69407;44.966;19.622;2023-05-07T11:00:57;6.05;;;1.95;;
80101;SDS011;69407;44.966;19.622;2023-05-07T11:03:27;5.72;;;2.13;;
80101;SDS011;69407;44.966;19.622;2023-05-07T11:11:16;3.47;;;2.20;;
80101;SDS011;69407;44.966;19.622;2023-05-07T11:16:20;3.10;;;1.83;;
80101;SDS011;69407;44.966;19.622;2023-05-07T11:21:36;4.57;;;2.38;;
80101;SDS011;69407;44.966;19.622;2023-05-07T11:24:01;5.40;;;2.25;;
80101;SDS011;69407;44.966;19.622;2023-05-07T11:26:28;3.67;;;2.03;;
80101;SDS011;69407;44.966;19.622;2023-05-07T11:28:56;5.20;;;2.15;;
80101;SDS011;69407;44.966;19.622;2023-05-07T11:31:23;2.72;;;2.22;;
80101;SDS011;69407;44.966;19.622;2023-05-07T11:33:53;3.65;;;2.08;;
80101;SDS011;69407;44.966;19.622;2023-05-07T11:36:21;6.32;;;2.58;;
80101;SDS011;69407;44.966;19.622;2023-05-07T11:38:48;5.20;;;2.30;;
80101;SDS011;69407;44.966;19.622;2023-05-07T11:41:15;4.40;;;2.35;;
80101;SDS011;69407;44.966;19.622;2023-05-07T11:43:58;3.47;;;2.42;;
80101;SDS011;69407;44.966;19.622;2023-05-07T11:46:24;3.97;;;2.40;;
80101;SDS011;69407;44.966;19.622;2023-05-07T11:48:50;3.47;;;1.98;;
80101;SDS011;69407;44.966;19.622;2023-05-07T11:51:19;3.85;;;2.20;;
80101;SDS011;69407;44.966;19.622;2023-05-07T11:53:46;5.95;;;2.42;;
80101;SDS011;69407;44.966;19.622;2023-05-07T11:56:12;3.47;;;2.53;;
80101;SDS011;69407;44.966;19.622;2023-05-07T11:58:40;4.22;;;2.20;;
80101;SDS011;69407;44.966;19.622;2023-05-07T12:01:09;4.93;;;2.30;;
80101;SDS011;69407;44.966;19.622;2023-05-07T12:03:36;3.88;;;2.35;;
80101;SDS011;69407;44.966;19.622;2023-05-07T12:06:02;4.88;;;2.53;;
80101;SDS011;69407;44.966;19.622;2023-05-07T12:08:30;3.05;;;2.00;;
80101;SDS011;69407;44.966;19.622;2023-05-07T12:10:56;5.93;;;2.22;;
80101;SDS011;69407;44.966;19.622;2023-05-07T12:13:22;3.85;;;1.92;;
80101;SDS011;69407;44.966;19.622;2023-05-07T12:15:52;4.18;;;3.00;;
80101;SDS011;69407;44.966;19.622;2023-05-07T12:18:18;8.20;;;2.03;;
80101;SDS011;69407;44.966;19.622;2023-05-07T12:20:45;4.75;;;2.55;;
80101;SDS011;69407;44.966;19.622;2023-05-07T12:23:10;3.30;;;1.88;;
80101;SDS011;69407;44.966;19.622;2023-05-07T12:25:37;4.80;;;2.03;;
80101;SDS011;69407;44.966;19.622;2023-05-07T12:28:05;2.63;;;2.08;;
80101;SDS011;69407;44.966;19.622;2023-05-07T12:30:37;2.85;;;1.77;;
80101;SDS011;69407;44.966;19.622;2023-05-07T12:33:03;2.40;;;1.85;;
80101;SDS011;69407;44.966;19.622;2023-05-07T12:35:29;2.58;;;1.73;;
80101;SDS011;69407;44.966;19.622;2023-05-07T12:37:57;4.93;;;2.25;;
80101;SDS011;69407;44.966;19.622;2023-05-07T12:40:24;2.53;;;1.77;;
80101;SDS011;69407;44.966;19.622;2023-05-07T12:43:25;3.83;;;1.95;;
80101;SDS011;69407;44.966;19.622;2023-05-07T12:46:00;2.90;;;1.92;;
80101;SDS011;69407;44.966;19.622;2023-05-07T12:48:26;2.92;;;2.20;;
80101;SDS011;69407;44.966;19.622;2023-05-07T12:50:59;2.45;;;2.00;;
80101;SDS011;69407;44.966;19.622;2023-05-07T12:53:26;5.10;;;1.92;;
80101;SDS011;69407;44.966;19.622;2023-05-07T12:55:53;5.82;;;1.90;;
80101;SDS011;69407;44.966;19.622;2023-05-07T12:58:23;2.05;;;1.83;;
80101;SDS011;69407;44.966;19.622;2023-05-07T13:00:53;2.45;;;1.77;;
80101;SDS011;69407;44.966;19.622;2023-05-07T13:03:29;3.75;;;1.85;;
80101;SDS011;69407;44.966;19.622;2023-05-07T13:06:00;2.17;;;1.92;;
80101;SDS011;69407;44.966;19.622;2023-05-07T13:08:28;3.95;;;1.95;;
80101;SDS011;69407;44.966;19.622;2023-05-07T13:10:56;3.97;;;2.10;;
80101;SDS011;69407;44.966;19.622;2023-05-07T13:13:23;5.25;;;1.80;;
80101;SDS011;69407;44.966;19.622;2023-05-07T13:15:48;3.13;;;1.67;;
80101;SDS011;69407;44.966;19.622;2023-05-07T13:18:14;7.18;;;2.50;;
80101;SDS011;69407;44.966;19.622;2023-05-07T13:20:40;3.80;;;1.92;;
80101;SDS011;69407;44.966;19.622;2023-05-07T13:23:05;2.20;;;1.33;;
80101;SDS011;69407;44.966;19.622;2023-05-07T13:25:31;3.50;;;1.88;;
80101;SDS011;69407;44.966;19.622;2023-05-07T13:27:56;3.88;;;1.80;;
80101;SDS011;69407;44.966;19.622;2023-05-07T13:30:22;3.95;;;2.10;;
80101;SDS011;69407;44.966;19.622;2023-05-07T13:32:48;4.20;;;2.20;;
80101;SDS011;69407;44.966;19.622;2023-05-07T13:35:15;4.18;;;2.10;;
80101;SDS011;69407;44.966;19.622;2023-05-07T13:37:41;2.97;;;2.05;;
80101;SDS011;69407;44.966;19.622;2023-05-07T13:40:07;2.53;;;2.00;;
80101;SDS011;69407;44.966;19.622;2023-05-07T13:42:33;3.33;;;1.70;;
80101;SDS011;69407;44.966;19.622;2023-05-07T13:44:58;2.92;;;2.08;;
80101;SDS011;69407;44.966;19.622;2023-05-07T13:47:23;6.93;;;2.20;;
80101;SDS011;69407;44.966;19.622;2023-05-07T13:49:49;2.92;;;2.17;;
80101;SDS011;69407;44.966;19.622;2023-05-07T13:52:15;4.05;;;1.90;;
80101;SDS011;69407;44.966;19.622;2023-05-07T13:54:41;12.30;;;2.22;;
80101;SDS011;69407;44.966;19.622;2023-05-07T13:57:07;3.72;;;1.75;;
80101;SDS011;69407;44.966;19.622;2023-05-07T13:59:33;5.68;;;2.33;;
80101;SDS011;69407;44.966;19.622;2023-05-07T14:01:58;2.65;;;1.92;;
80101;SDS011;69407;44.966;19.622;2023-05-07T14:04:24;4.43;;;2.28;;
80101;SDS011;69407;44.966;19.622;2023-05-07T14:06:50;5.75;;;2.28;;
80101;SDS011;69407;44.966;19.622;2023-05-07T14:09:16;3.92;;;2.30;;
80101;SDS011;69407;44.966;19.622;2023-05-07T14:11:41;2.38;;;2.08;;
80101;SDS011;69407;44.966;19.622;2023-05-07T14:14:07;3.50;;;1.90;;
80101;SDS011;69407;44.966;19.622;2023-05-07T14:16:32;4.43;;;2.42;;
80101;SDS011;69407;44.966;19.622;2023-05-07T14:18:58;2.22;;;1.40;;
80101;SDS011;69407;44.966;19.622;2023-05-07T14:21:23;4.68;;;2.45;;
80101;SDS011;69407;44.966;19.622;2023-05-07T14:23:48;2.92;;;1.50;;
80101;SDS011;69407;44.966;19.622;2023-05-07T14:26:14;4.50;;;1.73;;
80101;SDS011;69407;44.966;19.622;2023-05-07T14:28:39;4.97;;;2.10;;
80101;SDS011;69407;44.966;19.622;2023-05-07T14:31:06;2.78;;;1.90;;
80101;SDS011;69407;44.966;19.622;2023-05-07T14:33:31;4.85;;;2.03;;
80101;SDS011;69407;44.966;19.622;2023-05-07T14:35:57;3.83;;;1.70;;
80101;SDS011;69407;44.966;19.622;2023-05-07T14:38:22;4.78;;;1.50;;
80101;SDS011;69407;44.966;19.622;2023-05-07T14:40:48;4.38;;;1.42;;
80101;SDS011;69407;44.966;19.622;2023-05-07T14:43:13;2.13;;;1.70;;
80101;SDS011;69407;44.966;19.622;2023-05-07T14:45:39;3.88;;;2.03;;
80101;SDS011;69407;44.966;19.622;2023-05-07T14:48:04;2.42;;;1.50;;
80101;SDS011;69407;44.966;19.622;2023-05-07T14:50:30;2.33;;;1.80;;
80101;SDS011;69407;44.966;19.622;2023-05-07T14:52:56;2.53;;;1.60;;